createdAt,value
2022-10-17T00:00:45.666Z,27.62
2022-10-17T00:01:47.484Z,27.80
2022-10-17T00:02:49.336Z,27.67
2022-10-17T00:03:51.131Z,27.82
2022-10-17T00:04:52.967Z,27.37
2022-10-17T00:05:54.874Z,28.22
2022-10-17T00:06:56.747Z,27.58
2022-10-17T00:07:58.540Z,27.71
2022-10-17T00:09:00.300Z,27.49
2022-10-17T00:10:02.054Z,28.23
2022-10-17T00:11:06.783Z,27.87
2022-10-17T00:12:08.531Z,28.13
2022-10-17T00:13:11.018Z,28.17
2022-10-17T00:14:12.844Z,27.32
2022-10-17T00:15:19.595Z,28.16
2022-10-17T00:16:25.557Z,28.11
2022-10-17T00:17:27.528Z,27.42
2022-10-17T00:18:29.563Z,27.94
2022-10-17T00:19:31.292Z,27.82
2022-10-17T00:20:35.738Z,27.95
2022-10-17T00:21:37.477Z,27.99
2022-10-17T00:22:39.393Z,27.74
2022-10-17T00:23:41.201Z,27.81
2022-10-17T00:24:42.917Z,28.30
2022-10-17T00:25:44.661Z,27.83
2022-10-17T00:26:46.343Z,27.73
2022-10-17T00:27:48.378Z,28.02
2022-10-17T00:28:52.511Z,27.55
2022-10-17T00:29:54.475Z,27.63
2022-10-17T00:31:02.450Z,28.21
2022-10-17T00:32:04.310Z,28.18
2022-10-17T00:33:06.450Z,27.35
2022-10-17T00:34:08.219Z,27.98
2022-10-17T00:35:10.318Z,28.22
2022-10-17T00:36:15.505Z,27.54
2022-10-17T00:37:17.507Z,27.42
2022-10-17T00:38:19.250Z,27.79
2022-10-17T00:39:21.017Z,27.58
2022-10-17T00:40:23.239Z,28.17
2022-10-17T00:41:30.888Z,27.53
2022-10-17T00:42:32.740Z,27.94
2022-10-17T00:43:54.634Z,27.63
2022-10-17T00:45:19.647Z,27.31
2022-10-17T00:46:23.063Z,27.78
2022-10-17T00:47:24.902Z,27.58
2022-10-17T00:48:26.655Z,27.98
2022-10-17T00:49:33.158Z,27.74
2022-10-17T00:50:37.071Z,27.86
2022-10-17T00:51:45.161Z,28.17
2022-10-17T00:52:48.883Z,28.22
2022-10-17T00:53:51.914Z,27.55
2022-10-17T00:55:01.440Z,27.59
2022-10-17T00:56:03.258Z,28.07
2022-10-17T00:57:05.208Z,28.18
2022-10-17T00:58:07.026Z,28.04
2022-10-17T00:59:12.469Z,27.81
2022-10-17T01:00:15.786Z,27.49
2022-10-17T01:01:17.746Z,28.30
2022-10-17T01:02:21.735Z,28.26
2022-10-17T01:03:24.195Z,28.02
2022-10-17T01:04:26.070Z,27.96
2022-10-17T01:05:29.151Z,27.62
2022-10-17T01:06:31.040Z,28.13
2022-10-17T01:07:37.162Z,28.36
2022-10-17T01:08:39.950Z,28.39
2022-10-17T01:09:43.524Z,27.70
2022-10-17T01:10:47.938Z,28.11
2022-10-17T01:11:56.053Z,28.33
2022-10-17T01:13:06.754Z,28.01
2022-10-17T01:14:32.962Z,28.24
2022-10-17T01:15:39.110Z,27.87
2022-10-17T01:16:52.375Z,27.90
2022-10-17T01:18:22.734Z,28.01
2022-10-17T01:19:44.151Z,27.97
2022-10-17T01:21:04.526Z,28.03
2022-10-17T01:22:14.096Z,27.48
2022-10-17T01:23:19.237Z,27.44
2022-10-17T01:24:38.935Z,28.26
2022-10-17T01:25:56.048Z,27.74
2022-10-17T01:27:19.615Z,28.08
2022-10-17T01:29:02.643Z,27.60
2022-10-17T01:30:27.018Z,28.12
2022-10-17T01:31:34.154Z,27.93
2022-10-17T01:32:48.250Z,27.41
2022-10-17T01:33:49.877Z,28.25
2022-10-17T01:34:54.604Z,28.34
2022-10-17T01:36:22.434Z,28.06
2022-10-17T01:37:24.100Z,28.08
2022-10-17T01:38:35.378Z,27.70
2022-10-17T01:40:00.275Z,27.66
2022-10-17T01:41:12.514Z,27.96
2022-10-17T01:42:23.979Z,28.33
2022-10-17T01:43:41.304Z,27.68
2022-10-17T01:44:50.168Z,28.40
2022-10-17T01:46:16.430Z,28.23
2022-10-17T01:47:22.068Z,27.87
2022-10-17T01:48:28.525Z,27.88
2022-10-17T01:49:32.402Z,28.04
2022-10-17T01:50:45.538Z,27.92
2022-10-17T01:51:52.876Z,27.70
2022-10-17T01:53:02.155Z,28.34
2022-10-17T01:54:26.742Z,27.75
2022-10-17T01:55:35.049Z,27.97
2022-10-17T01:56:40.632Z,28.26
2022-10-17T01:57:49.459Z,28.32
2022-10-17T01:58:56.439Z,28.20
2022-10-17T01:59:58.375Z,27.81
2022-10-17T02:01:04.723Z,28.41
2022-10-17T02:02:08.609Z,28.24
2022-10-17T02:03:14.420Z,28.31
2022-10-17T02:04:16.539Z,27.74
2022-10-17T02:05:24.950Z,28.00
2022-10-17T02:06:26.919Z,27.78
2022-10-17T02:07:29.814Z,27.81
2022-10-17T02:08:45.193Z,28.30
2022-10-17T02:09:47.190Z,28.31
2022-10-17T02:10:57.556Z,28.56
2022-10-17T02:12:36.802Z,28.30
2022-10-17T02:13:53.571Z,27.74
2022-10-17T02:15:13.872Z,28.26
2022-10-17T02:16:27.599Z,27.72
2022-10-17T02:17:32.935Z,27.64
2022-10-17T02:18:52.803Z,27.71
2022-10-17T02:20:29.410Z,27.80
2022-10-17T02:21:40.707Z,28.24
2022-10-17T02:22:49.587Z,28.06
2022-10-17T02:24:05.026Z,27.85
2022-10-17T02:25:11.112Z,27.91
2022-10-17T02:26:30.810Z,27.62
2022-10-17T02:27:44.141Z,28.41
2022-10-17T02:29:12.151Z,27.50
2022-10-17T02:30:44.300Z,28.34
2022-10-17T02:31:58.534Z,28.39
2022-10-17T02:33:06.861Z,27.66
2022-10-17T02:34:21.055Z,27.61
2022-10-17T02:35:28.008Z,28.10
2022-10-17T02:36:36.609Z,28.39
2022-10-17T02:37:39.037Z,28.28
2022-10-17T02:38:42.406Z,28.41
2022-10-17T02:39:44.765Z,27.85
2022-10-17T02:40:50.827Z,28.44
2022-10-17T02:41:55.553Z,27.80
2022-10-17T02:42:59.700Z,27.97
2022-10-17T02:44:03.767Z,27.92
2022-10-17T02:45:06.554Z,27.66
2022-10-17T02:46:08.506Z,28.43
2022-10-17T02:47:16.254Z,28.61
2022-10-17T02:48:36.699Z,28.05
2022-10-17T02:49:43.414Z,27.89
2022-10-17T02:51:03.027Z,28.17
2022-10-17T02:52:14.493Z,28.22
2022-10-17T02:53:25.319Z,27.84
2022-10-17T02:54:46.130Z,28.19
2022-10-17T02:55:58.982Z,28.11
2022-10-17T02:57:12.502Z,28.27
2022-10-17T02:58:24.239Z,28.10
2022-10-17T02:59:29.550Z,28.18
2022-10-17T03:00:32.790Z,27.77
2022-10-17T03:01:36.154Z,27.92
2022-10-17T03:02:44.123Z,28.32
2022-10-17T03:03:46.194Z,28.31
2022-10-17T03:04:47.951Z,27.93
2022-10-17T03:05:52.205Z,28.55
2022-10-17T03:06:56.905Z,28.58
2022-10-17T03:07:59.164Z,28.23
2022-10-17T03:09:00.942Z,28.56
2022-10-17T03:10:04.367Z,27.92
2022-10-17T03:11:06.475Z,28.17
2022-10-17T03:12:08.798Z,27.82
2022-10-17T03:13:10.832Z,28.49
2022-10-17T03:14:15.190Z,28.08
2022-10-17T03:15:17.588Z,28.00
2022-10-17T03:16:19.375Z,28.04
2022-10-17T03:17:21.194Z,28.16
2022-10-17T03:18:23.447Z,28.37
2022-10-17T03:19:28.854Z,28.17
2022-10-17T03:20:30.744Z,28.10
2022-10-17T03:21:32.622Z,28.41
2022-10-17T03:22:34.575Z,28.45
2022-10-17T03:23:38.254Z,27.90
2022-10-17T03:24:41.275Z,28.35
2022-10-17T03:25:43.156Z,28.33
2022-10-17T03:27:53.227Z,28.36
2022-10-17T03:28:55.362Z,28.37
2022-10-17T03:29:58.183Z,28.77
2022-10-17T03:31:00.011Z,28.15
2022-10-17T03:32:02.090Z,28.45
2022-10-17T03:33:03.896Z,27.99
2022-10-17T03:34:05.646Z,28.40
2022-10-17T03:35:09.254Z,28.27
2022-10-17T03:36:17.218Z,28.63
2022-10-17T03:37:20.446Z,28.48
2022-10-17T03:38:22.302Z,28.35
2022-10-17T03:39:24.225Z,28.74
2022-10-17T03:40:26.018Z,27.98
2022-10-17T03:41:29.243Z,28.26
2022-10-17T03:42:32.346Z,28.49
2022-10-17T03:43:34.723Z,28.73
2022-10-17T03:44:36.429Z,28.14
2022-10-17T03:45:39.268Z,28.66
2022-10-17T03:46:42.391Z,28.08
2022-10-17T03:47:44.182Z,28.10
2022-10-17T03:48:46.007Z,28.43
2022-10-17T03:49:47.693Z,28.59
2022-10-17T03:50:50.409Z,28.38
2022-10-17T03:51:52.201Z,28.05
2022-10-17T03:52:54.526Z,28.30
2022-10-17T03:53:56.298Z,28.67
2022-10-17T03:54:57.970Z,28.30
2022-10-17T03:56:14.212Z,28.73
2022-10-17T03:57:16.255Z,28.42
2022-10-17T03:58:18.513Z,28.02
2022-10-17T03:59:20.259Z,28.59
2022-10-17T04:00:30.641Z,28.46
2022-10-17T04:01:33.437Z,28.00
2022-10-17T04:02:36.034Z,27.98
2022-10-17T04:03:38.151Z,28.43
2022-10-17T04:04:39.939Z,28.02
2022-10-17T04:05:42.027Z,28.28
2022-10-17T04:06:43.803Z,28.55
2022-10-17T04:07:45.984Z,28.32
2022-10-17T04:08:49.337Z,28.30
2022-10-17T04:10:05.707Z,28.80
2022-10-17T04:11:09.165Z,28.61
2022-10-17T04:12:10.958Z,28.03
2022-10-17T04:13:13.137Z,28.47
2022-10-17T04:14:14.909Z,28.02
2022-10-17T04:15:17.411Z,28.20
2022-10-17T04:16:20.283Z,28.25
2022-10-17T04:17:37.235Z,28.65
2022-10-17T04:18:41.490Z,28.14
2022-10-17T04:19:43.207Z,28.50
2022-10-17T04:20:44.907Z,28.79
2022-10-17T04:21:47.076Z,28.44
2022-10-17T04:22:49.770Z,28.02
2022-10-17T04:23:59.179Z,28.68
2022-10-17T04:25:27.382Z,28.01
2022-10-17T04:26:29.223Z,28.56
2022-10-17T04:27:31.233Z,27.93
2022-10-17T04:28:33.967Z,28.20
2022-10-17T04:29:35.820Z,28.00
2022-10-17T04:30:59.993Z,28.38
2022-10-17T04:32:07.627Z,28.32
2022-10-17T04:33:22.123Z,28.59
2022-10-17T04:34:23.857Z,28.46
2022-10-17T04:35:25.853Z,28.47
2022-10-17T04:36:35.374Z,28.71
2022-10-17T04:37:37.492Z,28.14
2022-10-17T04:38:47.834Z,28.50
2022-10-17T04:39:49.665Z,28.20
2022-10-17T04:40:51.651Z,28.17
2022-10-17T04:41:53.918Z,28.67
2022-10-17T04:42:55.694Z,28.29
2022-10-17T04:44:05.426Z,28.56
2022-10-17T04:45:10.996Z,28.35
2022-10-17T04:46:14.953Z,28.73
2022-10-17T04:47:16.808Z,28.49
2022-10-17T04:48:19.161Z,28.03
2022-10-17T04:49:21.058Z,28.33
2022-10-17T04:50:26.956Z,28.70
2022-10-17T04:52:04.166Z,28.33
2022-10-17T04:53:12.415Z,28.52
2022-10-17T04:54:14.181Z,27.98
2022-10-17T04:55:18.241Z,28.78
2022-10-17T04:56:22.187Z,28.81
2022-10-17T04:57:25.057Z,28.77
2022-10-17T04:58:43.372Z,28.82
2022-10-17T04:59:45.187Z,28.17
2022-10-17T05:01:17.001Z,28.52
2022-10-17T05:02:23.474Z,28.04
2022-10-17T05:03:25.970Z,28.59
2022-10-17T05:04:27.684Z,28.33
2022-10-17T05:05:29.570Z,28.18
2022-10-17T05:06:33.170Z,28.93
2022-10-17T05:07:53.356Z,28.74
2022-10-17T05:08:59.033Z,28.58
2022-10-17T05:10:01.158Z,28.33
2022-10-17T05:11:05.994Z,28.44
2022-10-17T05:12:10.228Z,28.36
2022-10-17T05:13:14.947Z,28.52
2022-10-17T05:14:16.894Z,28.58
2022-10-17T05:15:18.687Z,28.50
2022-10-17T05:16:21.522Z,28.75
2022-10-17T05:17:24.168Z,28.38
2022-10-17T05:18:26.024Z,28.71
2022-10-17T05:19:27.806Z,28.71
2022-10-17T05:20:29.603Z,28.25
2022-10-17T05:22:42.098Z,28.09
2022-10-17T05:23:45.855Z,27.98
2022-10-17T05:24:47.703Z,28.37
2022-10-17T05:25:54.775Z,27.88
2022-10-17T05:26:59.079Z,27.73
2022-10-17T05:28:00.806Z,28.22
2022-10-17T05:29:03.405Z,27.39
2022-10-17T05:30:08.394Z,28.07
2022-10-17T05:31:11.677Z,27.36
2022-10-17T05:32:14.754Z,27.55
2022-10-17T05:33:16.569Z,27.42
2022-10-17T05:34:18.359Z,27.70
2022-10-17T05:35:20.659Z,27.75
2022-10-17T05:36:22.725Z,27.02
2022-10-17T05:37:24.462Z,27.06
2022-10-17T05:38:29.261Z,27.33
2022-10-17T05:39:31.539Z,27.42
2022-10-17T05:40:34.676Z,27.06
2022-10-17T05:41:37.547Z,26.89
2022-10-17T05:43:43.839Z,27.32
2022-10-17T05:44:48.071Z,27.00
2022-10-17T05:45:52.607Z,27.26
2022-10-17T05:46:55.760Z,26.74
2022-10-17T05:47:57.679Z,27.01
2022-10-17T05:48:59.865Z,26.69
2022-10-17T05:50:01.810Z,27.25
2022-10-17T05:51:12.710Z,26.69
2022-10-17T05:52:17.382Z,26.47
2022-10-17T05:53:40.687Z,26.43
2022-10-17T05:54:46.337Z,26.61
2022-10-17T05:55:56.050Z,26.56
2022-10-17T05:56:58.354Z,26.77
2022-10-17T05:58:04.983Z,27.11
2022-10-17T05:59:11.075Z,26.72
2022-10-17T06:00:22.421Z,26.84
2022-10-17T06:01:30.973Z,26.61
2022-10-17T06:02:33.312Z,26.37
2022-10-17T06:03:35.391Z,26.32
2022-10-17T06:04:45.583Z,27.02
2022-10-17T06:05:48.502Z,26.19
2022-10-17T06:06:50.539Z,26.31
2022-10-17T06:07:58.235Z,26.54
2022-10-17T06:09:04.228Z,26.20
2022-10-17T06:10:13.087Z,26.80
2022-10-17T06:11:14.878Z,26.20
2022-10-17T06:12:16.683Z,26.32
2022-10-17T06:13:19.391Z,27.03
2022-10-17T06:14:24.890Z,26.09
2022-10-17T06:15:30.706Z,26.40
2022-10-17T06:16:37.251Z,26.23
2022-10-17T06:17:39.300Z,26.42
2022-10-17T06:18:41.056Z,26.84
2022-10-17T06:19:44.737Z,26.48
2022-10-17T06:20:48.370Z,26.47
2022-10-17T06:21:52.145Z,26.78
2022-10-17T06:22:56.751Z,26.87
2022-10-17T06:24:12.234Z,26.33
2022-10-17T06:25:16.355Z,26.50
2022-10-17T06:26:18.166Z,26.70
2022-10-17T06:27:21.221Z,26.49
2022-10-17T06:28:23.161Z,26.79
2022-10-17T06:29:24.930Z,26.78
2022-10-17T06:30:27.310Z,26.90
2022-10-17T06:31:29.495Z,26.17
2022-10-17T06:32:31.674Z,26.63
2022-10-17T06:33:34.647Z,26.60
2022-10-17T06:34:37.335Z,26.27
2022-10-17T06:35:39.146Z,26.40
2022-10-17T06:36:40.871Z,26.47
2022-10-17T06:37:43.667Z,26.04
2022-10-17T06:38:45.490Z,26.25
2022-10-17T06:39:56.750Z,26.62
2022-10-17T06:41:25.406Z,25.94
2022-10-17T06:42:29.346Z,26.27
2022-10-17T06:43:51.367Z,26.36
2022-10-17T06:45:19.039Z,26.13
2022-10-17T06:46:43.763Z,26.07
2022-10-17T06:47:49.974Z,26.30
2022-10-17T06:49:07.860Z,26.05
2022-10-17T06:50:32.078Z,26.62
2022-10-17T06:51:46.159Z,26.05
2022-10-17T06:52:52.704Z,26.21
2022-10-17T06:54:23.603Z,25.97
2022-10-17T06:56:03.844Z,26.36
2022-10-17T06:57:24.147Z,26.05
2022-10-17T06:58:39.101Z,26.02
2022-10-17T07:00:01.094Z,25.80
2022-10-17T07:01:12.153Z,26.66
2022-10-17T07:02:14.858Z,26.44
2022-10-17T07:03:18.043Z,25.85
2022-10-17T07:04:19.750Z,26.21
2022-10-17T07:05:21.531Z,26.22
2022-10-17T07:06:24.737Z,26.00
2022-10-17T07:07:27.468Z,26.53
2022-10-17T07:08:29.876Z,26.01
2022-10-17T07:09:32.992Z,26.28
2022-10-17T07:10:39.538Z,26.24
2022-10-17T07:11:42.652Z,26.24
2022-10-17T07:12:45.877Z,26.48
2022-10-17T07:13:48.423Z,26.35
2022-10-17T07:14:50.733Z,25.84
2022-10-17T07:15:52.717Z,26.03
2022-10-17T07:16:54.899Z,26.53
2022-10-17T07:17:58.936Z,26.05
2022-10-17T07:19:00.838Z,26.20
2022-10-17T07:20:09.288Z,26.00
2022-10-17T07:21:12.555Z,26.61
2022-10-17T07:22:15.363Z,26.58
2022-10-17T07:23:22.550Z,26.58
2022-10-17T07:24:24.256Z,26.18
2022-10-17T07:26:01.580Z,26.21
2022-10-17T07:27:04.974Z,26.24
2022-10-17T07:28:06.795Z,26.67
2022-10-17T07:29:09.656Z,26.55
2022-10-17T07:30:19.422Z,26.30
2022-10-17T07:31:32.126Z,26.73
2022-10-17T07:32:33.814Z,26.24
2022-10-17T07:33:36.394Z,25.96
2022-10-17T07:34:38.193Z,26.46
2022-10-17T07:35:41.309Z,26.00
2022-10-17T07:36:43.361Z,26.53
2022-10-17T07:37:45.901Z,26.07
2022-10-17T07:38:49.612Z,26.26
2022-10-17T07:39:52.716Z,26.86
2022-10-17T07:40:59.283Z,26.12
2022-10-17T07:42:00.998Z,26.89
2022-10-17T07:43:03.850Z,26.84
2022-10-17T07:44:06.275Z,26.22
2022-10-17T07:45:12.696Z,26.51
2022-10-17T07:46:14.931Z,26.78
2022-10-17T07:47:16.739Z,26.87
2022-10-17T07:48:20.898Z,26.85
2022-10-17T07:49:23.555Z,26.61
2022-10-17T07:50:25.715Z,26.86
2022-10-17T07:51:27.995Z,26.62
2022-10-17T07:52:29.934Z,26.58
2022-10-17T07:53:31.975Z,26.74
2022-10-17T07:54:33.639Z,26.27
2022-10-17T07:55:38.049Z,26.37
2022-10-17T07:56:40.204Z,26.72
2022-10-17T07:57:42.087Z,26.55
2022-10-17T07:58:43.892Z,26.26
2022-10-17T07:59:45.599Z,26.95
2022-10-17T08:00:51.190Z,27.05
2022-10-17T08:01:56.016Z,26.25
2022-10-17T08:02:57.783Z,27.03
2022-10-17T08:03:59.554Z,26.62
2022-10-17T08:05:01.243Z,26.94
2022-10-17T08:06:03.950Z,27.01
2022-10-17T08:07:19.560Z,27.07
2022-10-17T08:08:22.672Z,26.51
2022-10-17T08:09:24.363Z,26.77
2022-10-17T08:10:27.826Z,26.69
2022-10-17T08:11:29.608Z,26.91
2022-10-17T08:12:34.353Z,26.42
2022-10-17T08:13:37.163Z,27.05
2022-10-17T08:14:39.906Z,26.93
2022-10-17T08:15:41.615Z,26.49
2022-10-17T08:16:43.831Z,26.54
2022-10-17T08:17:45.587Z,26.41
2022-10-17T08:18:47.330Z,26.47
2022-10-17T08:19:49.117Z,27.15
2022-10-17T08:20:51.090Z,27.09
2022-10-17T08:21:54.463Z,27.27
2022-10-17T08:22:56.212Z,26.42
2022-10-17T08:23:58.051Z,26.61
2022-10-17T08:24:59.813Z,26.94
2022-10-17T08:26:03.462Z,26.96
2022-10-17T08:27:11.514Z,27.19
2022-10-17T08:28:13.417Z,27.00
2022-10-17T08:29:16.789Z,27.08
2022-10-17T08:30:18.541Z,26.73
2022-10-17T08:31:20.950Z,26.89
2022-10-17T08:32:25.987Z,26.34
2022-10-17T08:33:27.742Z,26.62
2022-10-17T08:34:29.641Z,26.57
2022-10-17T08:35:31.414Z,26.87
2022-10-17T08:36:33.231Z,26.76
2022-10-17T08:37:34.968Z,27.05
2022-10-17T08:38:38.491Z,26.80
2022-10-17T08:39:43.783Z,26.43
2022-10-17T08:40:49.575Z,27.26
2022-10-17T08:42:17.986Z,26.75
2022-10-17T08:43:35.590Z,26.77
2022-10-17T08:44:53.630Z,26.95
2022-10-17T08:46:00.552Z,26.76
2022-10-17T08:47:06.563Z,26.82
2022-10-17T08:48:14.842Z,27.29
2022-10-17T08:49:24.470Z,26.78
2022-10-17T08:50:48.299Z,27.31
2022-10-17T08:51:56.277Z,27.13
2022-10-17T08:53:04.067Z,26.80
2022-10-17T08:54:16.653Z,26.41
2022-10-17T08:55:28.935Z,27.03
2022-10-17T08:56:49.054Z,26.80
2022-10-17T08:57:51.171Z,27.16
2022-10-17T08:58:53.529Z,26.68
2022-10-17T08:59:55.506Z,26.88
2022-10-17T09:01:22.688Z,26.89
2022-10-17T09:02:38.299Z,26.40
2022-10-17T09:03:58.599Z,27.09
2022-10-17T09:05:37.290Z,26.67
2022-10-17T09:07:14.360Z,26.63
2022-10-17T09:08:28.163Z,26.64
2022-10-17T09:09:44.790Z,26.89
2022-10-17T09:11:02.566Z,27.25
2022-10-17T09:12:16.968Z,27.24
2022-10-17T09:13:30.918Z,26.39
2022-10-17T09:15:11.694Z,26.80
2022-10-17T09:16:42.222Z,26.55
2022-10-17T09:17:55.136Z,26.54
2022-10-17T09:18:59.420Z,27.08
2022-10-17T09:20:12.598Z,26.79
2022-10-17T09:21:46.073Z,26.60
2022-10-17T09:22:51.900Z,27.21
2022-10-17T09:24:09.481Z,26.61
2022-10-17T09:25:20.914Z,27.00
2022-10-17T09:26:23.403Z,26.85
2022-10-17T09:27:32.811Z,27.13
2022-10-17T09:28:40.284Z,27.34
2022-10-17T09:29:44.950Z,26.85
2022-10-17T09:30:55.736Z,27.12
2022-10-17T09:32:21.239Z,27.09
2022-10-17T09:33:35.237Z,26.82
2022-10-17T09:34:55.134Z,27.19
2022-10-17T09:35:59.512Z,27.42
2022-10-17T09:37:02.511Z,26.77
2022-10-17T09:38:05.098Z,27.04
2022-10-17T09:39:18.879Z,26.76
2022-10-17T09:40:33.738Z,27.32
2022-10-17T09:41:47.300Z,26.97
2022-10-17T09:42:51.295Z,27.06
2022-10-17T09:43:56.753Z,26.56
2022-10-17T09:45:01.373Z,26.65
2022-10-17T09:46:13.125Z,27.41
2022-10-17T09:47:20.847Z,26.90
2022-10-17T09:48:48.746Z,26.62
2022-10-17T09:49:53.784Z,26.84
2022-10-17T09:51:08.302Z,27.08
2022-10-17T09:52:22.427Z,26.62
2022-10-17T09:53:33.595Z,26.96
2022-10-17T09:54:44.126Z,26.91
2022-10-17T09:55:49.489Z,27.24
2022-10-17T09:57:01.793Z,27.17
2022-10-17T09:58:06.126Z,26.82
2022-10-17T09:59:13.802Z,27.02
2022-10-17T10:00:26.004Z,26.66
2022-10-17T10:01:30.774Z,27.14
2022-10-17T10:02:36.489Z,27.01
2022-10-17T10:03:38.256Z,27.01
2022-10-17T10:05:24.821Z,27.01
2022-10-17T10:06:26.555Z,26.64
2022-10-17T10:07:30.935Z,26.72
2022-10-17T10:08:36.273Z,26.87
2022-10-17T10:09:39.651Z,27.47
2022-10-17T10:10:43.395Z,26.85
2022-10-17T10:11:55.370Z,26.82
2022-10-17T10:13:15.815Z,27.41
2022-10-17T10:14:29.417Z,27.12
2022-10-17T10:15:37.958Z,27.32
2022-10-17T10:16:47.847Z,26.83
2022-10-17T10:17:49.649Z,27.36
2022-10-17T10:18:52.255Z,27.21
2022-10-17T10:19:54.810Z,27.62
2022-10-17T10:21:16.532Z,27.53
2022-10-17T10:22:20.506Z,27.34
2022-10-17T10:23:22.727Z,26.84
2022-10-17T10:24:30.627Z,27.45
2022-10-17T10:25:33.385Z,27.34
2022-10-17T10:26:40.272Z,27.48
2022-10-17T10:27:46.511Z,27.27
2022-10-17T10:29:02.258Z,27.07
2022-10-17T10:30:04.968Z,27.47
2022-10-17T10:31:08.654Z,27.13
2022-10-17T10:32:21.078Z,27.24
2022-10-17T10:33:27.052Z,27.46
2022-10-17T10:34:31.495Z,27.42
2022-10-17T10:35:35.911Z,27.18
2022-10-17T10:37:18.654Z,26.97
2022-10-17T10:38:21.123Z,26.99
2022-10-17T10:39:37.827Z,27.40
2022-10-17T10:40:47.497Z,26.69
2022-10-17T10:41:49.282Z,27.38
2022-10-17T10:42:54.015Z,27.08
2022-10-17T10:43:56.587Z,27.34
2022-10-17T10:45:04.145Z,27.17
2022-10-17T10:46:17.959Z,27.42
2022-10-17T10:47:21.148Z,26.91
2022-10-17T10:48:44.684Z,27.36
2022-10-17T10:49:46.810Z,27.20
2022-10-17T10:51:06.026Z,27.42
2022-10-17T10:52:10.405Z,27.42
2022-10-17T10:53:39.982Z,27.49
2022-10-17T10:55:03.044Z,27.23
2022-10-17T10:56:19.860Z,27.28
2022-10-17T10:57:25.780Z,27.21
2022-10-17T10:58:40.307Z,27.00
2022-10-17T10:59:58.429Z,26.85
2022-10-17T11:01:05.366Z,27.39
2022-10-17T11:02:36.810Z,27.21
2022-10-17T11:03:54.909Z,27.07
2022-10-17T11:05:36.747Z,26.81
2022-10-17T11:06:42.206Z,27.00
2022-10-17T11:08:06.732Z,27.07
2022-10-17T11:09:20.182Z,27.12
2022-10-17T11:10:49.530Z,27.42
2022-10-17T11:12:00.231Z,27.13
2022-10-17T11:13:11.435Z,27.00
2022-10-17T11:14:28.785Z,27.56
2022-10-17T11:15:51.725Z,26.82
2022-10-17T11:17:06.024Z,26.85
2022-10-17T11:18:16.400Z,27.51
2022-10-17T11:19:28.604Z,27.25
2022-10-17T11:20:59.867Z,27.48
2022-10-17T11:22:30.903Z,27.49
2022-10-17T11:23:40.738Z,27.02
2022-10-17T11:24:57.345Z,26.77
2022-10-17T11:26:02.576Z,27.44
2022-10-17T11:27:06.048Z,27.06
2022-10-17T11:28:18.210Z,26.72
2022-10-17T11:29:20.287Z,27.25
2022-10-17T11:30:27.056Z,26.82
2022-10-17T11:31:40.077Z,27.06
2022-10-17T11:32:47.679Z,26.94
2022-10-17T11:34:20.252Z,27.53
2022-10-17T11:35:38.061Z,26.85
2022-10-17T11:36:44.307Z,26.57
2022-10-17T11:38:03.294Z,26.78
2022-10-17T11:39:12.123Z,27.07
2022-10-17T11:40:36.302Z,26.76
2022-10-17T11:41:41.314Z,27.01
2022-10-17T11:43:05.350Z,27.19
2022-10-17T11:44:20.217Z,26.85
2022-10-17T11:45:26.484Z,27.31
2022-10-17T11:46:29.506Z,26.89
2022-10-17T11:47:54.295Z,27.52
2022-10-17T11:49:20.495Z,26.68
2022-10-17T11:52:03.129Z,26.67
2022-10-17T11:53:22.163Z,26.85
2022-10-17T11:54:43.813Z,27.08
2022-10-17T11:55:46.740Z,27.25
2022-10-17T11:57:14.787Z,26.59
2022-10-17T11:58:22.671Z,26.42
2022-10-17T11:59:48.503Z,26.70
2022-10-17T12:00:52.928Z,26.54
2022-10-17T12:02:05.498Z,27.08
2022-10-17T12:03:25.102Z,27.32
2022-10-17T12:04:39.257Z,26.54
2022-10-17T12:06:00.477Z,26.67
2022-10-17T12:07:38.293Z,27.18
2022-10-17T12:09:19.033Z,26.76
2022-10-17T12:10:39.514Z,26.47
2022-10-17T12:11:50.898Z,26.45
2022-10-17T12:12:52.649Z,26.69
2022-10-17T12:13:56.471Z,27.16
2022-10-17T12:15:23.890Z,26.76
2022-10-17T12:16:25.557Z,27.26
2022-10-17T12:17:32.991Z,27.40
2022-10-17T12:19:37.759Z,27.25
2022-10-17T12:20:40.218Z,26.85
2022-10-17T12:22:06.354Z,27.03
2022-10-17T12:23:10.783Z,27.24
2022-10-17T12:24:41.578Z,26.53
2022-10-17T12:26:01.658Z,26.90
2022-10-17T12:27:45.907Z,27.17
2022-10-17T12:28:48.455Z,27.25
2022-10-17T12:29:50.921Z,27.20
2022-10-17T12:30:54.730Z,26.96
2022-10-17T12:32:13.264Z,26.66
2022-10-17T12:33:22.443Z,27.03
2022-10-17T12:34:24.626Z,26.89
2022-10-17T12:35:28.587Z,26.75
2022-10-17T12:36:30.250Z,26.54
2022-10-17T12:37:57.338Z,27.38
2022-10-17T12:39:03.176Z,26.90
2022-10-17T12:40:36.532Z,26.57
2022-10-17T12:41:38.269Z,26.51
2022-10-17T12:42:48.612Z,26.67
2022-10-17T12:43:54.827Z,27.12
2022-10-17T12:44:56.695Z,27.14
2022-10-17T12:46:02.817Z,26.71
2022-10-17T12:47:10.642Z,27.38
2022-10-17T12:48:12.567Z,26.81
2022-10-17T12:49:24.428Z,27.52
2022-10-17T12:51:30.836Z,27.29
2022-10-17T12:52:32.151Z,26.55
2022-10-17T12:54:08.970Z,26.76
2022-10-17T12:55:18.088Z,26.81
2022-10-17T12:56:22.451Z,26.66
2022-10-17T12:57:33.205Z,27.24
2022-10-17T12:58:35.936Z,26.90
2022-10-17T12:59:37.636Z,26.79
2022-10-17T13:01:05.224Z,27.12
2022-10-17T13:02:19.124Z,26.67
2022-10-17T13:03:26.946Z,26.84
2022-10-17T13:04:30.672Z,26.94
2022-10-17T13:05:36.134Z,26.71
2022-10-17T13:06:44.983Z,27.37
2022-10-17T13:07:49.459Z,27.29
2022-10-17T13:09:04.120Z,27.22
2022-10-17T13:10:18.865Z,27.06
2022-10-17T13:11:27.610Z,27.30
2022-10-17T13:12:29.828Z,27.26
2022-10-17T13:13:41.858Z,27.25
2022-10-17T13:14:46.113Z,26.58
2022-10-17T13:15:53.674Z,27.07
2022-10-17T13:16:58.530Z,26.66
2022-10-17T13:18:02.510Z,27.19
2022-10-17T13:19:13.607Z,27.15
2022-10-17T13:20:28.924Z,26.81
2022-10-17T13:21:33.192Z,27.18
2022-10-17T13:22:34.954Z,27.08
2022-10-17T13:23:38.024Z,26.74
2022-10-17T13:24:41.065Z,26.86
2022-10-17T13:25:42.837Z,27.18
2022-10-17T13:26:46.078Z,27.33
2022-10-17T13:27:49.326Z,27.38
2022-10-17T13:30:27.934Z,26.66
2022-10-17T13:31:35.456Z,26.83
2022-10-17T13:32:39.765Z,26.93
2022-10-17T13:33:42.390Z,27.38
2022-10-17T13:34:44.263Z,26.87
2022-10-17T13:36:00.010Z,27.30
2022-10-17T13:37:06.946Z,27.15
2022-10-17T13:38:08.713Z,27.22
2022-10-17T13:39:17.121Z,26.86
2022-10-17T13:41:49.922Z,27.10
2022-10-17T13:42:53.794Z,27.14
2022-10-17T13:43:58.165Z,27.34
2022-10-17T13:45:00.146Z,26.91
2022-10-17T13:46:25.407Z,27.54
2022-10-17T13:47:30.826Z,27.43
2022-10-17T13:48:37.068Z,27.14
2022-10-17T13:49:43.054Z,26.95
2022-10-17T13:50:50.360Z,27.37
2022-10-17T13:51:54.104Z,27.07
2022-10-17T13:53:13.188Z,26.70
2022-10-17T13:54:40.446Z,27.48
2022-10-17T13:56:26.386Z,27.35
2022-10-17T13:57:27.994Z,26.79
2022-10-17T13:58:42.569Z,27.27
2022-10-17T13:59:47.863Z,27.45
2022-10-17T14:00:53.323Z,26.89
2022-10-17T14:01:56.033Z,27.44
2022-10-17T14:02:57.760Z,27.23
2022-10-17T14:04:09.404Z,27.52
2022-10-17T14:05:19.321Z,27.33
2022-10-17T14:06:24.432Z,27.00
2022-10-17T14:09:24.703Z,27.39
2022-10-17T14:10:36.798Z,26.92
2022-10-17T14:11:42.078Z,26.68
2022-10-17T14:12:45.619Z,27.20
2022-10-17T14:13:52.313Z,27.59
2022-10-17T14:15:11.197Z,27.39
2022-10-17T14:16:13.270Z,27.15
2022-10-17T14:17:35.961Z,26.78
2022-10-17T14:18:38.184Z,27.40
2022-10-17T14:19:40.379Z,26.86
2022-10-17T14:21:31.737Z,27.10
2022-10-17T14:22:24.710Z,26.75
2022-10-17T14:23:41.694Z,27.26
2022-10-17T14:24:43.858Z,27.09
2022-10-17T14:25:45.558Z,26.93
2022-10-17T14:26:52.959Z,27.22
2022-10-17T14:28:02.581Z,27.52
2022-10-17T14:29:07.127Z,27.55
2022-10-17T14:30:51.830Z,27.52
2022-10-17T14:31:53.490Z,27.15
2022-10-17T14:32:58.251Z,27.03
2022-10-17T14:34:01.779Z,27.10
2022-10-17T14:35:30.223Z,27.28
2022-10-17T14:36:37.503Z,27.48
2022-10-17T14:37:44.418Z,27.17
2022-10-17T14:38:50.130Z,26.85
2022-10-17T14:39:52.370Z,26.85
2022-10-17T14:41:23.548Z,27.68
2022-10-17T14:42:23.612Z,26.86
2022-10-17T14:43:28.503Z,26.88
2022-10-17T14:44:33.145Z,26.81
2022-10-17T14:45:38.323Z,26.99
2022-10-17T14:46:49.584Z,27.25
2022-10-17T14:47:54.627Z,27.63
2022-10-17T14:49:04.169Z,27.07
2022-10-17T14:50:12.058Z,27.47
2022-10-17T14:51:16.895Z,27.10
2022-10-17T14:52:19.042Z,27.60